ETEB

Ansbach Army Heliport

Germany
METAR ETEB 160556Z AUTO 13008KT 9999 OVC100 M04/M08 A2989 RMK AO2 SLPNO T10381081 11038 21050 57025 $
Observed Flight Rules
Dec-16 @ 05:56 UTC (an hour ago) Visual Flight Rules
Wind Visibility Clouds
130° at 8 knots 10,000+ meters
  • Overcast at 10,000' AGL
Temperatures Readings
Current -4°C / 25°F
Dewpoint -8°C / 18°F
Humidity 74%
Altimeter 29.89" Hg
Pressure 1012 hPa
Elevation 467
METAR ETEB 160556Z AUTO 13008KT 9999 OVC100 M04/M08 A2989 RMK AO2 SLPNO T10381081 11038 21050 57025 $
Observed Flight Rules
Dec-16 @ 05:56 UTC
(an hour ago)
VFR
Wind Visibility
130° at 8 knots 10,000+ meters
Clouds
  • Overcast at 10,000' AGL
Temperature Dewpoint
-4°C / 25°F -8°C / 18°F
Humidity Altimeter Pressure
74% 29.89" Hg 1012 hPa